LTBG

Bandırma Airport

Turkey
TAF LTBG 210740Z 2109/2118 03008KT CAVOK
Issued Valid From Valid To
Apr-21 @ 07:40 UTC
(2 hours ago)
Apr-21 @ 09:00 UTC
(50 minutes ago)
Apr-21 @ 18:00 UTC
(in 8 hours)
Apr-21 @ 09:00 to Apr-21 @ 18:00
TAF LTBG 210740Z 2109/2118 03008KT CAVOK
Wind Visibility Clouds Conditions
30° at 8 knots 10,000+ meters
  • No significant clouds
TAF LTBG 210740Z 2109/2118 03008KT CAVOK
Issued Apr-21 @ 07:40 UTC
(2 hours ago)
Valid From Apr-21 @ 09:00 UTC
(50 minutes ago)
Valid To Apr-21 @ 18:00 UTC
(in 8 hours)
Apr-21 @ 09:00 - Apr-21 @ 18:00
Wind Visibility
30° at 8 knots 10,000+ meters
Clouds
  • No significant clouds
Conditions